Time;durP1;ratioP1;P1;durP2;ratioP2;P2;SDS_P1;SDS_P2;PMS_P1;PMS_P2;Temp;Humidity;BMP_temperature;BMP_pressure;BME280_temperature;BME280_humidity;BME280_pressure;Samples;Min_cycle;Max_cycle;Signal;HPM_P1;HPM_P2
2021/05/14 00:00:01;;;;;;;1.17;0.65;;;;;;;;;;5110250;28;20028;-69
2021/05/14 00:03:41;;;;;;;1.77;0.88;;;;;;;;;;5130546;27;20428;-69
2021/05/14 00:06:07;;;;;;;1.02;0.77;;;;;;;;;;5112461;28;20020;-69
2021/05/14 00:11:05;;;;;;;2.08;0.70;;;;;;;;;;5089938;27;20378;-69
2021/05/14 00:13:31;;;;;;;2.75;0.63;;;;;;;;;;5090109;28;20039;-69
2021/05/14 00:15:57;;;;;;;2.22;0.95;;;;;;;;;;5089618;28;20025;-68
2021/05/14 00:18:24;;;;;;;2.78;0.90;;;;;;;;;;5089856;28;20035;-69
2021/05/14 00:24:11;;;;;;;2.05;0.60;;;;;;;;;;5109908;27;20787;-68
2021/05/14 00:27:16;;;;;;;1.77;0.80;;;;;;;;;;5110195;27;20373;-69
2021/05/14 00:29:54;;;;;;;1.65;0.70;;;;;;;;;;5110313;27;20434;-69
2021/05/14 00:32:21;;;;;;;1.48;0.70;;;;;;;;;;5110547;28;20107;-69
2021/05/14 00:34:47;;;;;;;1.38;0.73;;;;;;;;;;5110421;28;20379;-69
2021/05/14 00:37:13;;;;;;;2.38;0.68;;;;;;;;;;5108624;28;20081;-70
2021/05/14 00:39:39;;;;;;;1.65;0.82;;;;;;;;;;5110273;28;20023;-70
2021/05/14 00:42:56;;;;;;;1.20;0.70;;;;;;;;;;5110383;27;20384;-70
2021/05/14 00:45:22;;;;;;;2.10;0.90;;;;;;;;;;5108794;28;20024;-69
2021/05/14 00:48:44;;;;;;;3.70;1.35;;;;;;;;;;5110506;27;20779;-69
2021/05/14 00:51:42;;;;;;;3.45;0.80;;;;;;;;;;5069797;28;20379;-69
2021/05/14 00:54:08;;;;;;;4.00;1.00;;;;;;;;;;5068595;28;20409;-69
2021/05/14 00:56:35;;;;;;;3.95;0.90;;;;;;;;;;5068502;28;20558;-69
2021/05/14 00:59:01;;;;;;;4.10;1.30;;;;;;;;;;5068047;28;20032;-70
2021/05/14 01:01:27;;;;;;;5.13;0.90;;;;;;;;;;5069683;28;20086;-70
2021/05/14 01:04:44;;;;;;;5.28;1.70;;;;;;;;;;5110395;27;20385;-69
2021/05/14 01:08:51;;;;;;;5.13;1.80;;;;;;;;;;5110486;27;20381;-69
2021/05/14 01:14:18;;;;;;;4.25;1.10;;;;;;;;;;5130559;27;20170;-69
2021/05/14 01:17:00;;;;;;;3.25;1.20;;;;;;;;;;5110402;27;20749;-69
2021/05/14 01:19:26;;;;;;;3.28;1.02;;;;;;;;;;5110071;28;20102;-68
2021/05/14 01:22:08;;;;;;;2.05;0.88;;;;;;;;;;5110519;27;20385;-68
2021/05/14 01:24:34;;;;;;;1.23;0.88;;;;;;;;;;5110497;28;20103;-70
2021/05/14 01:31:15;;;;;;;4.13;1.10;;;;;;;;;;5110587;27;20385;-71
2021/05/14 01:33:44;;;;;;;1.92;0.80;;;;;;;;;;5110180;28;20472;-70
2021/05/14 01:38:03;;;;;;;3.35;1.10;;;;;;;;;;5110456;27;20454;-69
2021/05/14 01:40:34;;;;;;;3.22;1.17;;;;;;;;;;5110035;28;20028;-70
2021/05/14 01:44:19;;;;;;;2.33;0.80;;;;;;;;;;5114312;27;1156048;-69
2021/05/14 01:46:45;;;;;;;5.57;0.80;;;;;;;;;;5130932;28;20031;-70
2021/05/14 01:49:11;;;;;;;3.03;1.00;;;;;;;;;;5130460;28;20544;-69
2021/05/14 01:51:38;;;;;;;2.85;1.10;;;;;;;;;;5129857;28;20485;-69
2021/05/14 01:54:04;;;;;;;1.58;0.73;;;;;;;;;;5129654;28;20030;-70
2021/05/14 01:56:30;;;;;;;3.15;1.48;;;;;;;;;;5130537;28;20023;-70
2021/05/14 01:58:57;;;;;;;2.83;1.02;;;;;;;;;;5130768;28;20031;-70
2021/05/14 02:01:23;;;;;;;3.17;0.82;;;;;;;;;;5130167;28;20019;-70
2021/05/14 02:04:32;;;;;;;2.63;1.40;;;;;;;;;;5110374;27;20381;-69
2021/05/14 02:08:20;;;;;;;1.02;0.85;;;;;;;;;;5110053;27;20949;-69
2021/05/14 02:10:47;;;;;;;1.58;0.75;;;;;;;;;;5110573;28;20024;-69
2021/05/14 02:13:13;;;;;;;6.93;1.70;;;;;;;;;;5110617;28;20420;-69
2021/05/14 02:15:40;;;;;;;1.00;0.70;;;;;;;;;;5108984;28;20069;-69
2021/05/14 02:18:06;;;;;;;3.97;0.82;;;;;;;;;;5110341;28;20020;-69
2021/05/14 02:20:46;;;;;;;1.17;0.90;;;;;;;;;;5110541;27;20380;-70
2021/05/14 02:24:34;;;;;;;3.35;1.10;;;;;;;;;;5130599;27;20384;-69
2021/05/14 02:27:00;;;;;;;0.70;0.50;;;;;;;;;;5110521;28;20066;-68
2021/05/14 02:33:27;;;;;;;2.35;0.90;;;;;;;;;;5110539;27;20414;-69
2021/05/14 02:35:53;;;;;;;1.45;0.60;;;;;;;;;;5110498;28;20065;-69
2021/05/14 02:38:19;;;;;;;2.47;0.80;;;;;;;;;;5110049;28;20020;-69
2021/05/14 02:40:45;;;;;;;0.50;0.30;;;;;;;;;;5110346;28;20069;-69
2021/05/14 02:43:12;;;;;;;1.55;0.57;;;;;;;;;;5109258;28;20027;-69
2021/05/14 02:45:38;;;;;;;3.47;0.80;;;;;;;;;;5109807;28;20047;-69
2021/05/14 02:54:41;;;;;;;1.63;0.52;;;;;;;;;;5110665;27;20377;-69
2021/05/14 02:57:07;;;;;;;2.17;0.80;;;;;;;;;;5109196;28;20051;-69
2021/05/14 02:59:33;;;;;;;2.38;0.88;;;;;;;;;;5108780;28;20073;-69
2021/05/14 03:02:13;;;;;;;0.70;0.50;;;;;;;;;;5110564;27;20373;-69
2021/05/14 03:04:39;;;;;;;1.42;0.60;;;;;;;;;;5108732;28;20044;-69
2021/05/14 03:07:06;;;;;;;2.92;0.82;;;;;;;;;;5110414;28;20024;-69
2021/05/14 03:09:32;;;;;;;1.10;0.60;;;;;;;;;;5110390;28;20023;-69
2021/05/14 03:11:58;;;;;;;2.00;0.70;;;;;;;;;;5110056;28;20093;-69
2021/05/14 03:17:41;;;;;;;4.53;1.25;;;;;;;;;;5110398;27;20791;-68
2021/05/14 03:20:08;;;;;;;2.75;0.98;;;;;;;;;;5110288;28;20062;-68
2021/05/14 03:23:33;;;;;;;1.17;0.63;;;;;;;;;;5130937;27;20160;-69
2021/05/14 03:27:05;;;;;;;2.60;0.50;;;;;;;;;;5110137;27;20433;-69
2021/05/14 03:30:28;;;;;;;3.50;1.15;;;;;;;;;;5110583;27;20389;-69
2021/05/14 03:32:54;;;;;;;2.13;0.88;;;;;;;;;;5110248;28;20492;-69
2021/05/14 03:37:11;;;;;;;2.15;0.85;;;;;;;;;;5110431;27;20445;-69
2021/05/14 03:41:00;;;;;;;1.27;0.50;;;;;;;;;;5110186;27;20381;-69
2021/05/14 03:44:34;;;;;;;1.70;0.68;;;;;;;;;;5110401;27;20733;-69
2021/05/14 03:47:03;;;;;;;3.90;1.10;;;;;;;;;;5108738;28;20024;-69
2021/05/14 03:50:58;;;;;;;4.43;0.80;;;;;;;;;;5070069;28;20384;-68
2021/05/14 03:53:24;;;;;;;3.80;1.02;;;;;;;;;;5068796;28;20035;-69
2021/05/14 03:57:54;;;;;;;2.45;0.80;;;;;;;;;;5049978;27;20381;-69
2021/05/14 04:00:20;;;;;;;2.75;0.50;;;;;;;;;;5048594;28;20025;-69
2021/05/14 04:04:05;;;;;;;2.15;0.85;;;;;;;;;;5069928;28;20383;-69
2021/05/14 04:07:44;;;;;;;2.45;1.20;;;;;;;;;;5110020;27;20163;-69
2021/05/14 04:14:30;;;;;;;2.45;1.02;;;;;;;;;;5110693;27;20389;-69
2021/05/14 04:20:53;;;;;;;2.33;0.80;;;;;;;;;;5110388;27;20389;-69
2021/05/14 04:23:19;;;;;;;2.85;0.55;;;;;;;;;;5108735;28;20043;-69
2021/05/14 04:25:46;;;;;;;0.95;0.60;;;;;;;;;;5110382;28;20488;-69
2021/05/14 04:31:32;;;;;;;2.28;0.80;;;;;;;;;;5110686;27;20384;-69
2021/05/14 04:33:58;;;;;;;2.92;1.20;;;;;;;;;;5110706;28;20480;-69
2021/05/14 04:36:24;;;;;;;2.10;1.15;;;;;;;;;;5109932;28;20036;-69
2021/05/14 04:38:50;;;;;;;2.83;1.00;;;;;;;;;;5110412;28;20023;-69
2021/05/14 04:41:17;;;;;;;2.83;1.40;;;;;;;;;;5108855;28;20119;-69
2021/05/14 04:43:43;;;;;;;4.07;0.90;;;;;;;;;;5109863;28;20458;-69
2021/05/14 04:47:02;;;;;;;2.78;1.08;;;;;;;;;;5110435;27;20430;-69
2021/05/14 04:49:28;;;;;;;1.23;0.90;;;;;;;;;;5110405;28;20089;-68
2021/05/14 04:54:48;;;;;;;2.03;1.17;;;;;;;;;;5110678;27;20381;-69
2021/05/14 04:59:42;;;;;;;4.03;1.40;;;;;;;;;;5110394;27;20719;-69
2021/05/14 05:02:08;;;;;;;3.08;1.13;;;;;;;;;;5109251;28;20027;-69
2021/05/14 05:04:38;;;;;;;2.10;0.90;;;;;;;;;;5109967;28;20095;-74
2021/05/14 05:09:46;;;;;;;0.88;0.40;;;;;;;;;;5103323;27;20407;-72
2021/05/14 05:14:18;;;;;;;1.13;0.47;;;;;;;;;;5101128;27;20388;-72
2021/05/14 05:16:46;;;;;;;2.38;0.60;;;;;;;;;;5108221;28;20024;-71
2021/05/14 05:19:12;;;;;;;5.00;1.00;;;;;;;;;;5105804;28;20024;-71
2021/05/14 05:21:38;;;;;;;2.80;1.00;;;;;;;;;;5106695;28;20016;-73
2021/05/14 05:24:05;;;;;;;2.42;0.82;;;;;;;;;;5107495;28;20047;-74
2021/05/14 05:26:31;;;;;;;1.08;0.50;;;;;;;;;;5108073;28;20027;-73
2021/05/14 05:28:58;;;;;;;0.70;0.32;;;;;;;;;;5108287;28;20026;-73
2021/05/14 05:31:24;;;;;;;2.08;0.55;;;;;;;;;;5103740;28;20024;-72
2021/05/14 05:34:27;;;;;;;0.98;0.30;;;;;;;;;;5130609;27;20356;-70
2021/05/14 05:38:59;;;;;;;1.30;0.40;;;;;;;;;;5152843;27;20157;-69
2021/05/14 05:41:26;;;;;;;0.25;0.25;;;;;;;;;;5131510;27;20643;-72
2021/05/14 05:43:52;;;;;;;0.43;0.30;;;;;;;;;;5129364;27;20027;-72
2021/05/14 05:46:19;;;;;;;0.85;0.30;;;;;;;;;;5131666;27;20050;-73
2021/05/14 05:50:19;;;;;;;0.40;0.30;;;;;;;;;;5027979;27;20448;-70
2021/05/14 05:52:45;;;;;;;1.42;0.35;;;;;;;;;;5028277;28;20049;-69
2021/05/14 05:56:50;;;;;;;0.68;0.25;;;;;;;;;;5107798;27;20785;-70
2021/05/14 05:59:19;;;;;;;3.65;0.60;;;;;;;;;;5107865;28;20085;-71
2021/05/14 06:01:45;;;;;;;1.55;0.55;;;;;;;;;;5109814;28;20106;-77
2021/05/14 06:04:13;;;;;;;1.05;0.60;;;;;;;;;;5109836;28;20045;-72
2021/05/14 06:06:39;;;;;;;5.90;0.70;;;;;;;;;;5108574;28;20404;-72
2021/05/14 06:10:59;;;;;;;1.80;0.63;;;;;;;;;;5109758;27;20385;-71
2021/05/14 06:13:25;;;;;;;4.65;0.82;;;;;;;;;;5108945;28;20028;-75
2021/05/14 06:17:43;;;;;;;0.57;0.28;;;;;;;;;;5064901;28;20745;-72
2021/05/14 06:20:58;;;;;;;1.73;0.57;;;;;;;;;;5157444;27;20107;-73
2021/05/14 06:23:25;;;;;;;6.72;3.25;;;;;;;;;;5129233;27;20030;-70
2021/05/14 06:25:51;;;;;;;3.67;1.42;;;;;;;;;;5148400;27;20395;-70
2021/05/14 06:28:18;;;;;;;1.45;0.70;;;;;;;;;;5148781;27;20019;-71
2021/05/14 06:32:02;;;;;;;0.95;0.50;;;;;;;;;;5106365;27;20388;-72
2021/05/14 06:36:24;;;;;;;1.95;0.70;;;;;;;;;;5066892;28;20391;-70
2021/05/14 06:38:50;;;;;;;2.05;0.90;;;;;;;;;;5064402;28;20033;-70
2021/05/14 06:41:17;;;;;;;1.77;0.80;;;;;;;;;;5067132;28;20103;-72
2021/05/14 06:43:43;;;;;;;1.10;0.52;;;;;;;;;;5066694;28;20029;-72
2021/05/14 06:46:10;;;;;;;0.70;0.40;;;;;;;;;;5067121;28;20029;-74
2021/05/14 06:48:36;;;;;;;1.30;0.40;;;;;;;;;;5069281;28;20059;-73
2021/05/14 06:51:03;;;;;;;0.35;0.08;;;;;;;;;;5069039;28;20422;-71
2021/05/14 06:54:41;;;;;;;0.40;0.10;;;;;;;;;;5099910;27;20370;-73
2021/05/14 06:57:09;;;;;;;0.60;0.40;;;;;;;;;;5105186;28;20059;-71
2021/05/14 06:59:35;;;;;;;0.20;0.20;;;;;;;;;;5108813;28;20024;-72
2021/05/14 07:02:02;;;;;;;0.90;0.20;;;;;;;;;;5110158;28;20084;-73
2021/05/14 07:04:28;;;;;;;0.25;0.10;;;;;;;;;;5109853;28;20027;-72
2021/05/14 07:06:55;;;;;;;0.77;0.28;;;;;;;;;;5110194;28;20100;-72
2021/05/14 07:09:22;;;;;;;1.30;0.30;;;;;;;;;;5109946;28;20048;-73
2021/05/14 07:11:48;;;;;;;1.95;0.30;;;;;;;;;;5109809;28;20103;-73
2021/05/14 07:14:14;;;;;;;0.38;0.15;;;;;;;;;;5091702;28;20043;-75
2021/05/14 07:16:42;;;;;;;0.75;0.40;;;;;;;;;;5108704;28;20047;-72
2021/05/14 07:19:10;;;;;;;3.25;0.45;;;;;;;;;;5109770;28;20023;-73
2021/05/14 07:21:37;;;;;;;1.08;0.40;;;;;;;;;;5104677;28;20779;-73
2021/05/14 07:24:04;;;;;;;0.98;0.45;;;;;;;;;;5089258;28;20020;-73
2021/05/14 07:26:30;;;;;;;3.53;0.50;;;;;;;;;;5088882;28;20027;-71
2021/05/14 07:30:00;;;;;;;3.00;0.50;;;;;;;;;;5130758;27;20420;-74
2021/05/14 07:33:05;;;;;;;1.48;0.50;;;;;;;;;;5109686;27;20438;-71
2021/05/14 07:35:32;;;;;;;1.10;0.45;;;;;;;;;;5110385;28;20134;-73
2021/05/14 07:37:58;;;;;;;1.50;0.40;;;;;;;;;;5105835;28;20031;-73
2021/05/14 07:40:25;;;;;;;1.98;0.47;;;;;;;;;;5108249;28;20023;-74
2021/05/14 07:42:51;;;;;;;0.28;0.20;;;;;;;;;;5096921;28;20032;-73
2021/05/14 07:45:17;;;;;;;1.58;0.30;;;;;;;;;;5104994;28;20024;-72
2021/05/14 07:47:43;;;;;;;3.13;0.40;;;;;;;;;;5109434;28;20051;-73
2021/05/14 07:50:10;;;;;;;2.05;0.70;;;;;;;;;;5108224;28;20024;-73
2021/05/14 07:52:51;;;;;;;1.88;0.55;;;;;;;;;;5086667;27;20171;-73
2021/05/14 07:55:17;;;;;;;2.10;0.65;;;;;;;;;;5084732;28;20028;-74
2021/05/14 07:57:44;;;;;;;1.35;0.50;;;;;;;;;;5083547;28;20020;-73
2021/05/14 08:00:10;;;;;;;2.42;0.38;;;;;;;;;;5085812;28;20016;-73
2021/05/14 08:02:36;;;;;;;1.60;0.32;;;;;;;;;;5087725;28;20384;-76
2021/05/14 08:05:03;;;;;;;0.65;0.30;;;;;;;;;;5085057;28;20066;-74
2021/05/14 08:07:29;;;;;;;3.20;0.50;;;;;;;;;;5082374;28;20020;-72
2021/05/14 08:10:46;;;;;;;1.83;0.50;;;;;;;;;;5070645;28;20823;-75
2021/05/14 08:13:12;;;;;;;0.63;0.35;;;;;;;;;;5070284;28;20460;-74
2021/05/14 08:15:39;;;;;;;2.47;0.68;;;;;;;;;;5067957;28;20021;-73
2021/05/14 08:18:59;;;;;;;2.15;0.38;;;;;;;;;;5129564;27;20395;-71
2021/05/14 08:22:09;;;;;;;1.85;0.80;;;;;;;;;;5109579;27;20743;-73
2021/05/14 08:24:36;;;;;;;1.60;0.47;;;;;;;;;;5105086;28;20115;-72
2021/05/14 08:27:02;;;;;;;5.93;0.38;;;;;;;;;;5108537;28;20030;-73
2021/05/14 08:29:30;;;;;;;2.72;0.50;;;;;;;;;;5108297;28;20102;-74
2021/05/14 08:31:56;;;;;;;1.48;0.65;;;;;;;;;;5108218;28;20039;-73
2021/05/14 08:34:23;;;;;;;2.35;0.60;;;;;;;;;;5106867;28;20051;-74
2021/05/14 08:36:50;;;;;;;0.95;0.50;;;;;;;;;;5106815;28;20072;-73
2021/05/14 08:39:18;;;;;;;0.80;0.50;;;;;;;;;;5105830;28;20019;-73
2021/05/14 08:41:48;;;;;;;1.10;0.30;;;;;;;;;;5107862;28;20055;-74
2021/05/14 08:44:15;;;;;;;1.25;0.38;;;;;;;;;;5107410;28;20024;-73
2021/05/14 08:46:45;;;;;;;5.30;2.22;;;;;;;;;;5110424;28;20031;-73
2021/05/14 08:49:12;;;;;;;1.50;0.73;;;;;;;;;;5109287;28;20024;-73
2021/05/14 08:51:52;;;;;;;2.15;0.43;;;;;;;;;;5130240;27;20380;-73
2021/05/14 08:54:19;;;;;;;2.90;0.60;;;;;;;;;;5110157;28;20551;-73
2021/05/14 08:58:04;;;;;;;1.40;0.55;;;;;;;;;;5130055;27;20317;-75
2021/05/14 09:00:31;;;;;;;1.60;0.70;;;;;;;;;;5089403;28;20025;-71
2021/05/14 09:02:57;;;;;;;2.33;0.82;;;;;;;;;;5096640;28;20077;-72
2021/05/14 09:05:26;;;;;;;1.70;0.68;;;;;;;;;;5109439;28;20046;-74
2021/05/14 09:07:55;;;;;;;3.30;0.90;;;;;;;;;;5109373;28;20020;-72
2021/05/14 09:10:22;;;;;;;1.35;0.60;;;;;;;;;;5090808;28;20051;-74
2021/05/14 09:12:48;;;;;;;1.73;0.68;;;;;;;;;;5109646;28;20020;-74
2021/05/14 09:15:35;;;;;;;2.70;0.65;;;;;;;;;;5109125;27;20452;-74
2021/05/14 09:18:04;;;;;;;1.50;0.68;;;;;;;;;;5125281;28;20438;-75
2021/05/14 09:20:34;;;;;;;1.45;0.90;;;;;;;;;;5120058;28;20480;-75
2021/05/14 09:23:01;;;;;;;1.25;0.68;;;;;;;;;;5103631;28;20024;-75
2021/05/14 09:25:28;;;;;;;1.55;0.65;;;;;;;;;;5083285;28;20028;-76
2021/05/14 09:27:54;;;;;;;2.10;0.68;;;;;;;;;;5089383;28;20078;-76
2021/05/14 09:30:20;;;;;;;0.88;0.50;;;;;;;;;;5089338;28;20029;-77
2021/05/14 09:32:46;;;;;;;1.63;0.50;;;;;;;;;;5088725;28;20024;-75
2021/05/14 09:35:12;;;;;;;1.33;0.25;;;;;;;;;;5089019;28;20036;-76
2021/05/14 09:37:48;;;;;;;4.50;0.70;;;;;;;;;;5088960;28;20024;-77
2021/05/14 09:40:16;;;;;;;1.48;0.55;;;;;;;;;;5103956;28;20035;-74
2021/05/14 09:42:42;;;;;;;2.40;0.57;;;;;;;;;;5109557;28;20024;-76
2021/05/14 09:45:14;;;;;;;2.63;0.80;;;;;;;;;;5109349;28;20016;-76
2021/05/14 09:49:54;;;;;;;1.60;0.70;;;;;;;;;;5063275;28;20375;-74
2021/05/14 09:52:26;;;;;;;2.50;0.40;;;;;;;;;;5065845;28;20024;-75
2021/05/14 09:58:18;;;;;;;2.30;0.52;;;;;;;;;;5109962;27;20381;-75
2021/05/14 10:00:44;;;;;;;1.98;0.95;;;;;;;;;;5109386;28;20427;-75
2021/05/14 10:03:11;;;;;;;1.98;0.38;;;;;;;;;;5116876;28;20019;-76
2021/05/14 10:05:38;;;;;;;0.82;0.43;;;;;;;;;;5128900;28;20020;-74
2021/05/14 10:08:05;;;;;;;1.25;0.50;;;;;;;;;;5128076;28;20495;-74
2021/05/14 10:12:25;;;;;;;2.03;0.50;;;;;;;;;;5130114;27;20158;-74
2021/05/14 10:14:51;;;;;;;2.03;0.55;;;;;;;;;;5109505;28;20028;-74
2021/05/14 10:17:18;;;;;;;2.03;0.43;;;;;;;;;;5108314;28;20055;-75
2021/05/14 10:19:45;;;;;;;0.50;0.38;;;;;;;;;;5108455;28;20028;-74
2021/05/14 10:24:38;;;;;;;1.75;0.50;;;;;;;;;;5130311;27;20647;-75
2021/05/14 10:27:14;;;;;;;0.85;0.40;;;;;;;;;;5109335;28;20046;-75
2021/05/14 10:29:43;;;;;;;2.88;0.40;;;;;;;;;;5108532;28;20024;-74
2021/05/14 10:32:10;;;;;;;0.47;0.30;;;;;;;;;;5108388;28;20026;-74
2021/05/14 10:34:36;;;;;;;1.08;0.40;;;;;;;;;;5091640;28;20028;-74
2021/05/14 10:37:02;;;;;;;1.23;0.40;;;;;;;;;;5109407;28;20036;-74
2021/05/14 10:39:36;;;;;;;3.15;0.68;;;;;;;;;;5108547;28;20065;-75
2021/05/14 10:42:05;;;;;;;0.85;0.40;;;;;;;;;;5109192;28;20036;-76
2021/05/14 10:44:45;;;;;;;1.73;0.77;;;;;;;;;;5108420;28;20024;-77
2021/05/14 10:47:26;;;;;;;1.75;0.43;;;;;;;;;;5109669;28;20049;-74
2021/05/14 10:50:02;;;;;;;3.00;0.55;;;;;;;;;;5108971;28;20111;-67
2021/05/14 10:52:31;;;;;;;0.60;0.30;;;;;;;;;;5106845;28;20035;-72
2021/05/14 10:54:58;;;;;;;1.27;0.40;;;;;;;;;;5106957;28;20024;-75
2021/05/14 10:57:40;;;;;;;1.17;0.38;;;;;;;;;;5109375;28;20099;-73
2021/05/14 11:00:29;;;;;;;0.52;0.40;;;;;;;;;;5091350;28;20034;-72
2021/05/14 11:03:13;;;;;;;0.88;0.30;;;;;;;;;;5107866;28;20027;-70
2021/05/14 11:05:43;;;;;;;1.02;0.13;;;;;;;;;;5106819;28;20019;-71
2021/05/14 11:08:29;;;;;;;0.32;0.30;;;;;;;;;;5094273;28;20048;-70
2021/05/14 11:11:00;;;;;;;5.38;0.63;;;;;;;;;;5086895;28;20060;-71
2021/05/14 11:13:52;;;;;;;2.25;0.88;;;;;;;;;;5099424;28;20038;-69
2021/05/14 11:16:37;;;;;;;2.22;0.35;;;;;;;;;;5107872;28;20425;-70
2021/05/14 11:19:23;;;;;;;2.80;0.50;;;;;;;;;;5107626;28;20023;-69
2021/05/14 11:22:03;;;;;;;1.58;0.60;;;;;;;;;;5088294;28;20027;-70
2021/05/14 11:24:29;;;;;;;1.48;0.55;;;;;;;;;;5089691;28;20055;-70
2021/05/14 11:26:59;;;;;;;1.10;0.32;;;;;;;;;;5089765;28;20020;-70
2021/05/14 11:29:30;;;;;;;0.85;0.32;;;;;;;;;;5108012;28;20024;-71
2021/05/14 11:31:56;;;;;;;2.75;0.43;;;;;;;;;;5107874;28;20023;-70
2021/05/14 11:34:22;;;;;;;3.47;0.50;;;;;;;;;;5101291;28;20026;-70
2021/05/14 11:36:48;;;;;;;1.15;0.60;;;;;;;;;;5076575;28;20074;-71
2021/05/14 11:39:23;;;;;;;1.60;0.47;;;;;;;;;;5084322;28;20028;-70
2021/05/14 11:41:59;;;;;;;10.15;1.15;;;;;;;;;;5074378;28;20484;-71
2021/05/14 11:44:26;;;;;;;3.55;1.10;;;;;;;;;;5073515;28;20448;-71
2021/05/14 11:46:56;;;;;;;1.58;0.40;;;;;;;;;;5056085;28;20432;-72
2021/05/14 11:49:23;;;;;;;1.05;0.55;;;;;;;;;;5073976;28;20480;-71
2021/05/14 11:51:54;;;;;;;3.53;0.93;;;;;;;;;;5074388;28;20028;-71
2021/05/14 11:54:21;;;;;;;1.50;0.50;;;;;;;;;;5072904;28;20103;-70
2021/05/14 11:56:47;;;;;;;1.13;0.50;;;;;;;;;;5074179;28;20059;-71
2021/05/14 12:00:35;;;;;;;1.85;0.30;;;;;;;;;;5108853;27;20434;-72
2021/05/14 12:03:02;;;;;;;2.25;0.30;;;;;;;;;;5109916;28;20034;-70
2021/05/14 12:05:29;;;;;;;1.92;0.50;;;;;;;;;;5108009;28;20032;-69
2021/05/14 12:08:09;;;;;;;0.63;0.20;;;;;;;;;;5107857;28;20612;-70
2021/05/14 12:10:44;;;;;;;0.75;0.45;;;;;;;;;;5108179;28;20476;-70
2021/05/14 12:13:12;;;;;;;8.23;0.80;;;;;;;;;;5109404;28;20020;-72
2021/05/14 12:15:38;;;;;;;0.85;0.30;;;;;;;;;;5107472;28;20028;-71
2021/05/14 12:18:04;;;;;;;3.10;0.57;;;;;;;;;;5108808;28;20384;-71
2021/05/14 12:20:37;;;;;;;0.50;0.40;;;;;;;;;;5108437;28;20043;-71
2021/05/14 12:23:04;;;;;;;1.13;0.40;;;;;;;;;;5108691;28;20050;-71
2021/05/14 12:25:40;;;;;;;0.85;0.45;;;;;;;;;;5109157;28;20028;-71
2021/05/14 12:28:26;;;;;;;1.35;0.40;;;;;;;;;;5107673;28;20024;-71
2021/05/14 12:30:53;;;;;;;2.65;0.40;;;;;;;;;;5107129;28;20032;-70
2021/05/14 12:33:19;;;;;;;2.92;0.73;;;;;;;;;;5109424;28;20024;-70
2021/05/14 12:35:55;;;;;;;3.15;0.70;;;;;;;;;;5108956;28;20024;-70
2021/05/14 12:38:36;;;;;;;3.67;0.60;;;;;;;;;;5108923;28;20031;-70
2021/05/14 12:41:02;;;;;;;2.35;0.60;;;;;;;;;;5108851;28;20031;-71
2021/05/14 12:43:29;;;;;;;0.60;0.32;;;;;;;;;;5108535;28;20024;-71
2021/05/14 12:46:05;;;;;;;0.30;0.20;;;;;;;;;;5108531;28;20110;-71
2021/05/14 12:48:32;;;;;;;2.47;0.50;;;;;;;;;;5107237;28;20019;-71
2021/05/14 12:50:58;;;;;;;1.38;0.50;;;;;;;;;;5108822;28;20024;-71
2021/05/14 12:53:25;;;;;;;3.97;0.90;;;;;;;;;;5106856;28;20043;-73
2021/05/14 12:55:51;;;;;;;1.33;0.38;;;;;;;;;;5105973;28;20027;-73
2021/05/14 12:58:18;;;;;;;2.05;0.30;;;;;;;;;;5107897;28;20023;-72
2021/05/14 13:00:45;;;;;;;2.17;1.10;;;;;;;;;;5109111;28;20019;-69
2021/05/14 13:03:11;;;;;;;1.13;0.55;;;;;;;;;;5108821;28;20016;-72
2021/05/14 13:05:39;;;;;;;3.58;0.38;;;;;;;;;;5107789;28;20471;-71
2021/05/14 13:08:08;;;;;;;1.17;0.30;;;;;;;;;;5108918;28;20073;-71
2021/05/14 13:10:34;;;;;;;0.43;0.30;;;;;;;;;;5102713;28;20420;-72
2021/05/14 13:13:01;;;;;;;0.68;0.38;;;;;;;;;;5095430;28;20028;-72
2021/05/14 13:15:27;;;;;;;5.55;0.50;;;;;;;;;;5095528;28;20043;-71
2021/05/14 13:17:54;;;;;;;3.10;0.50;;;;;;;;;;5095019;28;20103;-71
2021/05/14 13:20:20;;;;;;;2.05;0.30;;;;;;;;;;5095331;28;20074;-71
2021/05/14 13:22:46;;;;;;;1.60;0.50;;;;;;;;;;5095330;28;20387;-71
2021/05/14 13:25:12;;;;;;;2.17;0.52;;;;;;;;;;5094956;28;20532;-71
2021/05/14 13:27:40;;;;;;;1.80;0.40;;;;;;;;;;5095050;28;20016;-71
2021/05/14 13:30:10;;;;;;;0.98;0.40;;;;;;;;;;5093728;28;20035;-71
2021/05/14 13:32:36;;;;;;;0.57;0.25;;;;;;;;;;5094852;28;20016;-72
2021/05/14 13:35:04;;;;;;;0.73;0.22;;;;;;;;;;5093781;28;20391;-72
2021/05/14 13:37:31;;;;;;;0.95;0.35;;;;;;;;;;5094945;28;20024;-72
2021/05/14 13:39:57;;;;;;;0.77;0.30;;;;;;;;;;5093156;28;20043;-72
2021/05/14 13:42:23;;;;;;;3.90;1.02;;;;;;;;;;5094852;28;20069;-72
2021/05/14 13:44:49;;;;;;;1.67;0.50;;;;;;;;;;5094445;28;20024;-71
2021/05/14 13:47:15;;;;;;;1.23;0.63;;;;;;;;;;5094766;28;20036;-72
2021/05/14 13:49:42;;;;;;;2.88;1.15;;;;;;;;;;5094719;28;20024;-72
2021/05/14 13:52:08;;;;;;;2.97;1.20;;;;;;;;;;5093372;28;20372;-72
2021/05/14 13:54:34;;;;;;;10.38;2.92;;;;;;;;;;5093585;28;20032;-72
2021/05/14 13:57:00;;;;;;;1.95;0.90;;;;;;;;;;5094697;28;20020;-72
2021/05/14 13:59:26;;;;;;;2.00;0.82;;;;;;;;;;5092517;28;20068;-71
2021/05/14 14:01:53;;;;;;;1.20;0.63;;;;;;;;;;5094603;28;20017;-72
2021/05/14 14:04:19;;;;;;;5.88;0.70;;;;;;;;;;5093126;28;20025;-72
2021/05/14 14:06:45;;;;;;;3.03;0.73;;;;;;;;;;5092850;28;20431;-72
2021/05/14 14:09:45;;;;;;;3.85;0.88;;;;;;;;;;5110443;27;20381;-72
2021/05/14 14:12:12;;;;;;;2.70;0.85;;;;;;;;;;5110498;28;20031;-70
2021/05/14 14:14:39;;;;;;;1.60;1.10;;;;;;;;;;5109998;28;20046;-72
2021/05/14 14:17:05;;;;;;;0.85;0.20;;;;;;;;;;5110360;28;20023;-71
2021/05/14 14:19:31;;;;;;;1.38;0.40;;;;;;;;;;5110567;28;20027;-71
2021/05/14 14:21:58;;;;;;;1.55;0.60;;;;;;;;;;5109754;28;20019;-72
2021/05/14 14:24:24;;;;;;;1.23;0.40;;;;;;;;;;5110211;28;20027;-72
2021/05/14 14:26:50;;;;;;;1.50;0.40;;;;;;;;;;5109468;28;20020;-72
2021/05/14 14:29:16;;;;;;;1.20;0.70;;;;;;;;;;5108667;28;20036;-72
2021/05/14 14:31:43;;;;;;;1.88;0.70;;;;;;;;;;5110201;28;20476;-72
2021/05/14 14:34:10;;;;;;;1.00;0.25;;;;;;;;;;5109749;28;20023;-72
2021/05/14 14:36:36;;;;;;;1.23;0.45;;;;;;;;;;5108735;28;20544;-72
2021/05/14 14:39:03;;;;;;;1.55;0.57;;;;;;;;;;5109824;28;20198;-72
2021/05/14 14:41:29;;;;;;;1.23;0.30;;;;;;;;;;5109461;28;20012;-72
2021/05/14 14:43:55;;;;;;;1.60;0.40;;;;;;;;;;5109836;28;20545;-72
2021/05/14 14:46:21;;;;;;;2.80;0.43;;;;;;;;;;5109741;28;20415;-72
2021/05/14 14:48:47;;;;;;;1.63;0.25;;;;;;;;;;5109274;28;20043;-73
2021/05/14 14:51:14;;;;;;;1.65;0.40;;;;;;;;;;5109584;28;20020;-73
2021/05/14 14:53:40;;;;;;;1.33;0.30;;;;;;;;;;5108587;28;20023;-72
2021/05/14 14:56:08;;;;;;;2.17;0.40;;;;;;;;;;5109375;28;20024;-72
2021/05/14 14:58:35;;;;;;;1.75;0.82;;;;;;;;;;5108255;28;20495;-73
2021/05/14 15:01:01;;;;;;;0.88;0.30;;;;;;;;;;5109534;28;20482;-72
2021/05/14 15:03:27;;;;;;;3.72;0.93;;;;;;;;;;5109022;28;20103;-72
2021/05/14 15:05:54;;;;;;;3.92;0.60;;;;;;;;;;5109293;28;20030;-72
2021/05/14 15:08:21;;;;;;;4.65;1.08;;;;;;;;;;5107839;28;20139;-72
2021/05/14 15:10:48;;;;;;;2.85;0.50;;;;;;;;;;5108864;28;20024;-72
2021/05/14 15:13:16;;;;;;;1.10;0.35;;;;;;;;;;5109422;28;20387;-72
2021/05/14 15:15:42;;;;;;;0.32;0.32;;;;;;;;;;5109368;28;20464;-72
2021/05/14 15:18:08;;;;;;;1.88;0.60;;;;;;;;;;5108638;28;20028;-72
2021/05/14 15:20:36;;;;;;;2.88;0.40;;;;;;;;;;5097103;28;20070;-72
2021/05/14 15:23:03;;;;;;;0.55;0.25;;;;;;;;;;5095341;28;20103;-72
2021/05/14 15:25:29;;;;;;;1.63;0.50;;;;;;;;;;5095511;28;20476;-72
2021/05/14 15:27:55;;;;;;;1.05;0.40;;;;;;;;;;5094098;28;20116;-72
2021/05/14 15:30:22;;;;;;;0.52;0.20;;;;;;;;;;5095161;28;20488;-73
2021/05/14 15:32:48;;;;;;;0.90;0.57;;;;;;;;;;5095534;28;20047;-72
2021/05/14 15:35:15;;;;;;;1.63;0.47;;;;;;;;;;5095374;28;20024;-72
2021/05/14 15:37:41;;;;;;;1.92;0.30;;;;;;;;;;5094877;28;20017;-73
2021/05/14 15:40:07;;;;;;;1.02;0.30;;;;;;;;;;5095248;28;20020;-73
2021/05/14 15:42:35;;;;;;;1.08;0.35;;;;;;;;;;5095152;28;20024;-73
2021/05/14 15:45:01;;;;;;;0.88;0.40;;;;;;;;;;5094613;28;20020;-72
2021/05/14 15:47:27;;;;;;;3.92;0.63;;;;;;;;;;5094897;28;20031;-72
2021/05/14 15:49:54;;;;;;;3.72;0.40;;;;;;;;;;5095170;28;20056;-72
2021/05/14 15:52:20;;;;;;;1.80;0.30;;;;;;;;;;5093309;28;20103;-72
2021/05/14 15:54:48;;;;;;;1.38;0.55;;;;;;;;;;5094794;28;20039;-73
2021/05/14 15:57:14;;;;;;;2.65;0.40;;;;;;;;;;5094852;28;20016;-72
2021/05/14 15:59:40;;;;;;;2.60;0.65;;;;;;;;;;5093068;28;20020;-73
2021/05/14 16:02:07;;;;;;;0.93;0.30;;;;;;;;;;5094761;28;20028;-72
2021/05/14 16:04:33;;;;;;;1.05;0.28;;;;;;;;;;5094839;28;20020;-73
2021/05/14 16:06:59;;;;;;;3.10;0.52;;;;;;;;;;5092990;28;20464;-72
2021/05/14 16:09:27;;;;;;;7.22;1.95;;;;;;;;;;5094530;28;20056;-73
2021/05/14 16:11:53;;;;;;;1.90;0.88;;;;;;;;;;5093370;28;20031;-72
2021/05/14 16:14:19;;;;;;;0.95;0.50;;;;;;;;;;5094160;28;20020;-72
2021/05/14 16:16:55;;;;;;;1.95;0.50;;;;;;;;;;5094472;28;20024;-72
2021/05/14 16:19:25;;;;;;;4.88;0.50;;;;;;;;;;5094054;28;20020;-72
2021/05/14 16:21:51;;;;;;;2.63;0.50;;;;;;;;;;5094269;28;20503;-71
2021/05/14 16:24:17;;;;;;;3.72;1.40;;;;;;;;;;5092894;28;20384;-71
2021/05/14 16:26:44;;;;;;;1.25;0.63;;;;;;;;;;5093832;28;20123;-72
2021/05/14 16:29:10;;;;;;;1.52;0.55;;;;;;;;;;5092993;28;20039;-71
2021/05/14 16:31:36;;;;;;;1.88;0.47;;;;;;;;;;5093162;28;20476;-71
2021/05/14 16:34:02;;;;;;;1.98;0.70;;;;;;;;;;5093547;28;20032;-71